Aérodrome :
LOGIN :

S'inscrire | Disclaimer

   EN    FR    IT 

 










Légende :    VFR   VFR Marginal   IFR   IFR Intensif   IFR Très Intensif
Visi : 
Plafond : 
>= 8 km
>= 3000ft
5 à 8 km
1000 à 3000 ft
1500m à 5 km
500 à 1000 ft
800 à 1500m
200 à 500 ft
< 800m
< 200 ft
Symboles :   Orages  Brouillard  Fortes neiges  Fortes précipitations  Vent > 20 kt
SIGMETs :   Divers  Orages  Givrage  Turbulence  Onde Orograph.  Cendres Volcan.






- Altitude de l'aérodrome : 14 ft
- Code IATA : BRE


EDDW - Bremen Neuenland

DERNIER METAR :
  • 280450Z 18005KT 9999 BKN023 11/10 Q1007 NOSIG

METARs EXPIRÉS :
  • 280420Z 18004KT 9999 BKN024 11/10 Q1007 NOSIG
  • 280350Z 20002KT 9999 BKN022 11/10 Q1007 NOSIG
  • 280320Z 19004KT 9999 BKN022 11/10 Q1007
  • 280250Z 21003KT 9999 BKN025 11/10 Q1007
  • 280220Z 21004KT 9999 FEW008 BKN027 11/10 Q1007

TAF TAF EDDW
Valide du 28 à 00h jusqu'au 29 à 00h UTC


272300Z 2800/2824 20004KT 9999 FEW015 BKN030
PROB30
TEMPO 2800/2804 3500 -RADZ BKN008
BECMG 2803/2806 19009KT
PROB30
TEMPO 2807/2810 BKN013
BECMG 2816/2818 VRB03KT



MET'MAP, la Météo Aéronautique d'un coup d'oeil ! - Copyright ORBIFLY Décembre 2007 - Disclaimer

ORBIFLY MET'MAP TEAM :

Programmation & Développement : Alexandra Zaïnal
Sur une idée originale de : Baudouin d'Aumeries
Assistance à la programmation : Marc-Olivier Méhu
Soutien technique & logistique : Manuel Goepfert

Contact : metmap@orbifly.com




SOURCES & CREDITS :

   NOAA